Time;durP1;ratioP1;P1;durP2;ratioP2;P2;SDS_P1;SDS_P2;PMS_P1;PMS_P2;Temp;Humidity;BMP_temperature;BMP_pressure;BME280_temperature;BME280_humidity;BME280_pressure;Samples;Min_cycle;Max_cycle;Signal;HPM_P1;HPM_P2
2022/12/21 00:00:14;;;;;;;16.90;11.00;;;;;;;6.42;100.00;100163.41;6150425;28;20047;-90
2022/12/21 00:03:16;;;;;;;16.45;11.82;;;;;;;6.45;100.00;100149.50;6169643;28;20533;-90
2022/12/21 00:06:18;;;;;;;20.15;11.48;;;;;;;6.44;100.00;100165.88;6156018;28;20067;-90
2022/12/21 00:09:20;;;;;;;19.73;10.88;;;;;;;6.46;100.00;100161.44;6155583;28;20035;-90
2022/12/21 00:12:22;;;;;;;18.92;11.70;;;;;;;6.50;100.00;100154.34;6163393;28;20078;-90
2022/12/21 00:15:24;;;;;;;19.67;11.95;;;;;;;6.48;100.00;100162.16;6160458;28;20043;-90
2022/12/21 00:18:25;;;;;;;18.70;12.38;;;;;;;6.50;100.00;100156.91;6162970;28;20764;-90
2022/12/21 00:21:30;;;;;;;20.02;12.82;;;;;;;6.51;100.00;100153.41;6159592;28;20341;-89
2022/12/21 00:24:32;;;;;;;22.58;12.85;;;;;;;6.46;100.00;100148.59;6164313;28;20038;-90
2022/12/21 00:27:34;;;;;;;18.95;12.48;;;;;;;6.44;100.00;100150.44;6154941;28;20166;-89
2022/12/21 00:30:36;;;;;;;20.33;13.13;;;;;;;6.40;100.00;100143.84;6159837;28;20031;-90
2022/12/21 00:33:40;;;;;;;17.88;11.60;;;;;;;6.37;100.00;100151.78;6165122;28;20045;-90
2022/12/21 00:36:41;;;;;;;20.20;12.48;;;;;;;6.34;100.00;100145.09;6166427;28;20043;-90
2022/12/21 00:39:45;;;;;;;20.30;12.70;;;;;;;6.34;100.00;100146.84;6159026;28;20094;-89
2022/12/21 00:42:47;;;;;;;20.55;13.80;;;;;;;6.34;100.00;100146.84;6162630;28;20528;-90
2022/12/21 00:45:49;;;;;;;23.52;13.20;;;;;;;6.34;100.00;100154.56;6157700;28;20055;-90
2022/12/21 00:48:51;;;;;;;19.83;12.02;;;;;;;6.33;100.00;100155.47;6164086;28;20039;-91
2022/12/21 00:51:52;;;;;;;22.45;12.85;;;;;;;6.34;100.00;100160.53;6162775;28;20165;-90
2022/12/21 00:54:54;;;;;;;20.38;12.48;;;;;;;6.33;100.00;100161.44;6164386;28;20400;-90
2022/12/21 00:57:58;;;;;;;20.08;12.80;;;;;;;6.38;100.00;100158.56;6173404;28;20097;-90
2022/12/21 01:01:05;;;;;;;18.17;12.32;;;;;;;6.36;100.00;100157.84;6160275;28;20035;-90
2022/12/21 01:04:07;;;;;;;20.40;13.32;;;;;;;6.35;100.00;100159.59;6159854;28;20059;-90
2022/12/21 01:07:09;;;;;;;19.65;12.27;;;;;;;6.33;100.00;100158.03;6161871;28;20046;-90
2022/12/21 01:10:11;;;;;;;21.75;13.20;;;;;;;6.33;100.00;100169.16;6157911;28;20051;-90
2022/12/21 01:13:15;;;;;;;19.20;12.88;;;;;;;6.32;100.00;100172.66;6162914;28;20042;-91
2022/12/21 01:16:21;;;;;;;22.42;13.65;;;;;;;6.32;100.00;100175.22;6177517;28;20046;-91
2022/12/21 01:19:23;;;;;;;21.02;13.20;;;;;;;6.36;100.00;100186.97;6158363;28;20114;-91
2022/12/21 01:22:24;;;;;;;20.05;12.27;;;;;;;6.34;100.00;100188.81;6156775;28;20098;-92
2022/12/21 01:25:26;;;;;;;22.13;13.00;;;;;;;6.34;100.00;100186.22;6173934;28;20047;-92
2022/12/21 01:28:28;;;;;;;23.13;13.77;;;;;;;6.35;100.00;100187.03;6168691;28;20058;-92
2022/12/21 01:31:30;;;;;;;20.48;13.75;;;;;;;6.35;100.00;100181.91;6163843;28;20042;-93
2022/12/21 01:34:32;;;;;;;20.67;13.23;;;;;;;6.34;100.00;100182.84;6161590;28;20682;-93
2022/12/21 01:37:34;;;;;;;21.17;12.48;;;;;;;6.35;100.00;100187.88;6163244;28;20063;-92
2022/12/21 01:40:37;;;;;;;23.60;14.15;;;;;;;6.33;100.00;100183.75;6161052;28;20043;-93
2022/12/21 01:43:42;;;;;;;19.90;12.93;;;;;;;6.33;100.00;100181.19;6163694;28;20047;-94
2022/12/21 01:46:47;;;;;;;21.13;12.43;;;;;;;6.32;100.00;100182.94;6174840;28;20117;-94
2022/12/21 01:49:55;;;;;;;19.65;11.82;;;;;;;6.30;100.00;100183.97;6177351;28;20385;-94
2022/12/21 01:53:01;;;;;;;22.02;13.68;;;;;;;6.27;100.00;100179.03;6175437;28;20169;-93
2022/12/21 01:56:07;;;;;;;20.88;12.85;;;;;;;6.25;100.00;100179.94;6177791;28;20416;-93
2022/12/21 01:59:27;;;;;;;22.00;13.75;;;;;;;6.24;100.00;100178.31;6175453;28;20142;-93
2022/12/21 02:02:57;;;;;;;21.75;12.63;;;;;;;6.20;100.00;100182.00;6163083;28;20043;-93
2022/12/21 02:06:10;;;;;;;21.40;12.90;;;;;;;6.20;100.00;100179.41;6158178;28;20149;-94
2022/12/21 02:09:15;;;;;;;20.88;13.57;;;;;;;6.19;100.00;100188.06;6160558;28;20142;-94
2022/12/21 02:12:18;;;;;;;22.48;13.85;;;;;;;6.18;100.00;100178.69;6159541;28;20113;-94
2022/12/21 02:15:28;;;;;;;21.00;13.60;;;;;;;6.17;100.00;100182.22;6157704;28;20158;-93
2022/12/21 02:18:45;;;;;;;21.50;13.32;;;;;;;6.18;100.00;100171.00;6167895;28;20043;-94
2022/12/21 02:22:05;;;;;;;21.42;13.35;;;;;;;6.20;100.00;100176.03;6164287;28;20600;-94
2022/12/21 02:25:16;;;;;;;23.52;13.52;;;;;;;6.20;100.00;100181.19;6142831;28;20098;-94
2022/12/21 02:28:36;;;;;;;23.40;14.20;;;;;;;6.19;100.00;100167.50;6144537;28;20050;-94
2022/12/21 02:31:59;;;;;;;24.95;14.73;;;;;;;6.19;100.00;100170.09;6157892;28;20042;-94
2022/12/21 02:35:14;;;;;;;;;;;;;;;6.20;100.00;100174.28;6165798;28;20138;-95
2022/12/21 02:38:38;;;;;;;22.08;13.38;;;;;;;6.18;100.00;100175.31;6149212;28;20310;-94
2022/12/21 02:41:55;;;;;;;22.67;14.00;;;;;;;6.19;100.00;100175.22;6152465;28;20055;-94
2022/12/21 02:45:01;;;;;;;27.45;15.27;;;;;;;6.18;100.00;100186.41;6156053;28;20408;-95
2022/12/21 02:48:08;;;;;;;23.65;14.48;;;;;;;6.18;100.00;100183.84;6174127;28;20093;-94
2022/12/21 02:51:17;;;;;;;26.25;14.75;;;;;;;6.17;100.00;100186.53;6177190;28;20039;-94
2022/12/21 02:54:23;;;;;;;24.75;14.70;;;;;;;6.13;100.00;100178.19;6152462;28;20307;-94
2022/12/21 02:57:36;;;;;;;25.38;14.35;;;;;;;6.15;100.00;100181.47;6134599;28;20133;-95
2022/12/21 03:00:52;;;;;;;24.75;14.13;;;;;;;6.16;100.00;100184.88;6159324;28;20061;-94
2022/12/21 03:04:09;;;;;;;23.02;13.65;;;;;;;6.15;100.00;100180.66;6159475;28;20492;-95
2022/12/21 03:07:56;;;;;;;23.00;14.38;;;;;;;6.15;100.00;100172.94;6157303;28;20197;-95
2022/12/21 03:11:15;;;;;;;22.95;14.75;;;;;;;6.14;100.00;100173.88;6168330;28;20070;-95
2022/12/21 03:15:18;;;;;;;;;;;;;;;;;;;;;
2022/12/21 03:19:35;;;;;;;21.00;13.00;;;;;;;6.10;100.00;100167.28;6107672;29;20052;-95
2022/12/21 03:23:16;;;;;;;22.70;13.50;;;;;;;6.10;100.00;100169.88;6103996;29;20121;-95
2022/12/21 03:30:53;;;;;;;26.55;14.80;;;;;;;6.10;100.00;100162.16;6022795;29;20057;-95
2022/12/21 03:34:47;;;;;;;26.85;14.77;;;;;;;6.11;100.00;100158.66;6005669;29;20057;-95
2022/12/21 03:38:40;;;;;;;24.52;13.82;;;;;;;6.10;100.00;100172.44;6019389;29;20142;-94
2022/12/21 03:42:33;;;;;;;21.05;13.30;;;;;;;6.11;100.00;100162.06;6003251;29;20565;-95
2022/12/21 03:46:07;;;;;;;24.25;13.68;;;;;;;6.11;100.00;100162.06;6325761;27;1467577;-96
2022/12/21 03:49:17;;;;;;;21.40;13.20;;;;;;;6.13;100.00;100159.38;6356962;27;20058;-95
2022/12/21 03:52:24;;;;;;;25.53;13.53;;;;;;;6.17;100.00;100153.13;6336431;28;20127;-95
2022/12/21 03:55:30;;;;;;;20.77;12.75;;;;;;;6.16;100.00;100159.16;6355005;28;20074;-95
2022/12/21 03:58:34;;;;;;;23.65;12.82;;;;;;;6.16;100.00;100152.31;6348845;27;20119;-95
2022/12/21 04:02:06;;;;;;;18.98;11.55;;;;;;;6.17;100.00;100156.50;6360444;28;20035;-95
2022/12/21 04:05:30;;;;;;;23.48;13.27;;;;;;;6.16;100.00;100149.72;6345526;27;20122;-95
2022/12/21 04:08:32;;;;;;;21.98;13.27;;;;;;;6.16;100.00;100157.44;6336792;28;20047;-96
2022/12/21 04:14:57;;;;;;;21.45;13.10;;;;;;;6.14;100.00;100154.16;6360691;28;20118;-95
2022/12/21 04:17:59;;;;;;;21.00;12.27;;;;;;;6.16;100.00;100161.75;6350930;28;20055;-96
2022/12/21 04:21:02;;;;;;;24.10;13.70;;;;;;;6.15;100.00;100154.97;6341161;28;20036;-95
2022/12/21 04:30:48;;;;;;;;;;;;;;;6.14;100.00;100141.31;6352503;28;20036;-95
2022/12/21 04:33:50;;;;;;;25.10;13.65;;;;;;;6.17;100.00;100153.13;6342896;28;20028;-95
2022/12/21 04:40:21;;;;;;;22.83;12.93;;;;;;;6.15;100.00;100148.06;6373370;28;20382;-96
2022/12/21 04:43:24;;;;;;;21.70;13.02;;;;;;;6.15;100.00;100147.25;6368047;28;20051;-96
2022/12/21 04:46:37;;;;;;;23.60;13.63;;;;;;;6.14;100.00;100149.00;6355723;28;20043;-96
2022/12/21 04:49:52;;;;;;;25.73;13.45;;;;;;;6.13;100.00;100152.47;6360606;28;20200;-96
2022/12/21 04:53:13;;;;;;;26.45;13.68;;;;;;;6.12;100.00;100148.28;6354020;28;20047;-96
2022/12/21 04:56:19;;;;;;;23.80;12.27;;;;;;;6.14;100.00;100153.34;6352047;28;20044;-96
2022/12/21 04:59:27;;;;;;;26.55;12.98;;;;;;;6.12;100.00;100147.47;6326711;28;20055;-96
2022/12/21 05:02:33;;;;;;;24.60;13.23;;;;;;;6.10;100.00;100139.84;6343289;28;20052;-96
2022/12/21 05:05:39;;;;;;;31.13;13.10;;;;;;;6.09;100.00;100145.94;6346934;28;20350;-96
2022/12/21 05:08:46;;;;;;;30.85;12.90;;;;;;;6.10;100.00;100144.97;6354805;28;20044;-96
2022/12/21 05:11:59;;;;;;;32.08;13.43;;;;;;;6.10;100.00;100134.72;6349355;28;20066;-96
2022/12/21 05:15:06;;;;;;;40.20;14.30;;;;;;;6.10;100.00;100137.28;6339720;28;20044;-96
2022/12/21 05:18:10;;;;;;;35.67;13.50;;;;;;;6.10;100.00;100137.28;6346260;28;20519;-96
2022/12/21 05:21:18;;;;;;;34.35;14.05;;;;;;;6.07;100.00;100134.09;6343963;28;20153;-96
2022/12/21 05:24:22;;;;;;;27.30;13.15;;;;;;;6.07;100.00;100132.34;6359628;28;20519;-96
2022/12/21 05:27:35;;;;;;;61.80;15.93;;;;;;;6.07;100.00;100129.78;6345207;28;20043;-96
2022/12/21 05:30:39;;;;;;;65.55;16.23;;;;;;;6.07;100.00;100132.34;6338542;28;20039;-96
2022/12/21 05:33:56;;;;;;;24.90;12.70;;;;;;;6.09;100.00;100127.94;6356232;28;20059;-96
2022/12/21 05:37:02;;;;;;;24.33;12.27;;;;;;;6.11;100.00;100131.22;6357656;28;20543;-96
2022/12/21 05:40:08;;;;;;;22.70;12.43;;;;;;;6.14;100.00;100128.44;6340118;28;20067;-96
2022/12/21 05:43:11;;;;;;;26.45;12.27;;;;;;;6.18;100.00;100123.91;6346732;28;20039;-96
2022/12/21 05:46:15;;;;;;;28.20;12.23;;;;;;;6.18;100.00;100122.16;6350820;28;20101;-96
2022/12/21 05:49:27;;;;;;;23.05;12.23;;;;;;;6.18;100.00;100118.78;6338059;28;20036;-96
2022/12/21 05:52:38;;;;;;;26.50;12.02;;;;;;;6.20;100.00;100120.31;6355574;28;20054;-96
2022/12/21 05:55:46;;;;;;;24.70;12.15;;;;;;;6.20;100.00;100120.31;6358802;28;20054;-96
2022/12/21 05:58:50;;;;;;;24.05;12.10;;;;;;;6.21;100.00;100116.00;6343798;28;20048;-96
2022/12/21 06:01:56;;;;;;;33.28;13.32;;;;;;;6.20;100.00;100122.06;6354988;28;20046;-96
2022/12/21 06:04:59;;;;;;;52.15;14.70;;;;;;;6.19;100.00;100125.56;6321437;28;20050;-96
2022/12/21 06:08:04;;;;;;;29.60;11.82;;;;;;;6.16;100.00;100131.75;6351847;28;20047;-96
2022/12/21 06:11:13;;;;;;;19.85;9.90;;;;;;;6.14;100.00;100136.16;6333917;28;20040;-96
2022/12/21 06:14:19;;;;;;;19.38;9.82;;;;;;;6.13;100.00;100139.63;6342463;28;20044;-96
2022/12/21 06:17:28;;;;;;;19.35;10.75;;;;;;;6.12;100.00;100134.63;6354834;28;20071;-96
2022/12/21 06:20:34;;;;;;;20.30;9.88;;;;;;;6.13;100.00;100143.97;6329061;28;20047;-96
2022/12/21 06:23:38;;;;;;;26.52;10.80;;;;;;;6.13;100.00;100137.06;6343789;28;20186;-96
2022/12/21 06:26:49;;;;;;;16.60;9.57;;;;;;;6.14;100.00;100138.72;6320606;28;20058;-96
2022/12/21 06:29:54;;;;;;;23.55;10.43;;;;;;;6.14;100.00;100137.91;6346014;28;20450;-96
2022/12/21 06:33:00;;;;;;;45.33;12.40;;;;;;;6.13;100.00;100126.78;6342346;28;20047;-96
2022/12/21 06:36:10;;;;;;;37.78;11.63;;;;;;;6.13;100.00;100143.97;6342907;28;20035;-96
2022/12/21 06:39:13;;;;;;;41.58;12.90;;;;;;;6.10;100.00;100146.75;6334957;28;20058;-96
2022/12/21 06:42:19;;;;;;;38.60;13.15;;;;;;;6.10;100.00;100139.03;6356639;28;20076;-96
2022/12/21 06:45:22;;;;;;;26.92;11.45;;;;;;;6.10;100.00;100137.28;6353237;28;20039;-96
2022/12/21 06:48:26;;;;;;;38.15;12.60;;;;;;;6.13;100.00;100152.47;6345064;28;20051;-96
2022/12/21 06:51:29;;;;;;;258.63;28.38;;;;;;;6.13;100.00;100147.34;6338896;28;20051;-96
2022/12/21 06:54:32;;;;;;;37.55;11.02;;;;;;;6.12;100.00;100138.00;6341886;28;20043;-96
2022/12/21 06:57:35;;;;;;;79.15;16.48;;;;;;;6.11;100.00;100144.09;6346944;28;20046;-96
2022/12/21 07:00:45;;;;;;;56.83;13.98;;;;;;;6.09;100.00;100145.94;6349794;28;20043;-96
2022/12/21 07:03:48;;;;;;;32.22;12.23;;;;;;;6.08;100.00;100143.44;6343807;28;20039;-96
2022/12/21 07:06:51;;;;;;;23.67;11.32;;;;;;;6.11;100.00;100150.94;6346686;28;20036;-96
2022/12/21 07:09:54;;;;;;;120.32;20.13;;;;;;;6.11;100.00;100156.94;6350824;28;20036;-96
2022/12/21 07:13:01;;;;;;;33.67;12.68;;;;;;;6.11;100.00;100159.50;6349877;28;20047;-96
2022/12/21 07:16:12;;;;;;;41.08;12.32;;;;;;;6.12;100.00;100157.75;6349238;28;20040;-96
2022/12/21 07:19:21;;;;;;;35.65;13.15;;;;;;;6.11;100.00;100159.50;6353233;28;20048;-96
2022/12/21 07:22:33;;;;;;;92.95;17.33;;;;;;;6.11;100.00;100154.34;6342980;28;20044;-96
2022/12/21 07:25:42;;;;;;;45.80;13.45;;;;;;;6.09;100.00;100142.50;6351726;28;20052;-96
2022/12/21 07:28:47;;;;;;;37.92;13.48;;;;;;;6.09;100.00;100148.50;6356426;28;20543;-96
2022/12/21 07:31:57;;;;;;;49.38;14.27;;;;;;;6.09;100.00;100143.34;6335767;28;20511;-96
2022/12/21 07:35:04;;;;;;;66.80;15.02;;;;;;;6.11;100.00;100138.09;6339620;28;20076;-96
2022/12/21 07:38:15;;;;;;;49.40;14.93;;;;;;;6.12;100.00;100138.00;6346876;28;20032;-96
2022/12/21 07:41:27;;;;;;;58.75;14.57;;;;;;;6.13;100.00;100143.97;6348351;28;20050;-96
2022/12/21 07:44:30;;;;;;;80.10;17.77;;;;;;;6.13;100.00;100144.78;6330328;28;20069;-96
2022/12/21 07:48:04;;;;;;;56.90;15.00;;;;;;;6.15;100.00;100139.53;6350387;28;20050;-96
2022/12/21 07:51:14;;;;;;;41.63;12.88;;;;;;;6.16;100.00;100142.03;6339323;28;20097;-96
2022/12/21 07:54:25;;;;;;;57.65;15.38;;;;;;;6.18;100.00;100129.88;6355412;28;20044;-96
2022/12/21 07:57:48;;;;;;;35.35;12.48;;;;;;;6.24;100.00;100133.78;6355346;28;20061;-96
2022/12/21 08:01:09;;;;;;;42.42;13.65;;;;;;;6.26;100.00;100121.69;6349887;28;20225;-96
2022/12/21 08:04:20;;;;;;;47.03;13.38;;;;;;;6.28;100.00;100127.50;6353812;28;20067;-96
2022/12/21 08:07:35;;;;;;;40.95;12.45;;;;;;;6.33;100.00;100137.47;6357249;28;20040;-96
2022/12/21 08:10:57;;;;;;;29.17;11.70;;;;;;;6.36;100.00;100147.56;6343931;28;20043;-96
2022/12/21 08:14:15;;;;;;;28.10;12.02;;;;;;;6.40;100.00;100156.72;6352395;28;20040;-96
2022/12/21 08:17:36;;;;;;;31.98;11.63;;;;;;;6.36;100.00;100148.41;6354591;28;20056;-96
2022/12/21 08:20:54;;;;;;;29.42;11.82;;;;;;;6.35;100.00;100151.06;6345258;28;20115;-96
2022/12/21 08:24:23;;;;;;;43.38;12.50;;;;;;;6.31;100.00;100150.47;6340998;28;20054;-96
2022/12/21 08:27:55;;;;;;;30.40;11.85;;;;;;;6.32;100.00;100141.00;6277523;28;20584;-96
2022/12/21 08:31:12;;;;;;;40.13;12.15;;;;;;;6.34;100.00;100136.56;6274455;28;20052;-96
2022/12/21 08:34:21;;;;;;;33.95;12.20;;;;;;;6.37;100.00;100134.59;6256359;28;20044;-96
2022/12/21 08:37:38;;;;;;;27.80;11.52;;;;;;;6.41;100.00;100140.34;6277457;28;20032;-96
2022/12/21 08:41:09;;;;;;;28.55;11.00;;;;;;;6.44;100.00;100140.16;6274002;28;20045;-96
2022/12/21 08:44:28;;;;;;;30.25;11.43;;;;;;;6.46;100.00;100144.28;6278345;28;20048;-96
2022/12/21 08:47:41;;;;;;;27.25;11.27;;;;;;;6.47;100.00;100143.34;6261178;28;20107;-96
2022/12/21 08:51:11;;;;;;;39.67;12.43;;;;;;;6.47;100.00;100137.38;6285280;28;20111;-96
2022/12/21 08:54:27;;;;;;;27.83;11.57;;;;;;;6.46;100.00;100146.84;6369368;28;20046;-96
2022/12/21 08:57:46;;;;;;;35.08;14.73;;;;;;;6.47;100.00;100140.75;6357046;28;20036;-96
2022/12/21 09:01:10;;;;;;;44.03;14.60;;;;;;;6.50;100.00;100146.63;6370436;28;20054;-96
2022/12/21 09:04:38;;;;;;;46.42;13.45;;;;;;;6.52;100.00;100137.88;6354949;28;20046;-96
2022/12/21 09:07:44;;;;;;;31.45;12.30;;;;;;;6.54;100.00;100148.06;6355070;28;20031;-96
2022/12/21 09:11:09;;;;;;;;;;;;;;;;;;;;;
2022/12/21 09:14:19;;;;;;;35.72;12.20;;;;;;;6.51;100.00;100149.09;6361813;28;20043;-96
2022/12/21 09:17:29;;;;;;;24.77;11.45;;;;;;;6.48;100.00;100159.56;6348665;28;20052;-96
2022/12/21 09:20:46;;;;;;;32.88;12.30;;;;;;;6.45;100.00;100155.47;6350666;28;20047;-96
2022/12/21 09:23:53;;;;;;;26.05;12.30;;;;;;;6.42;100.00;100155.69;6351396;28;20047;-96
2022/12/21 09:26:55;;;;;;;27.40;12.43;;;;;;;6.43;100.00;100146.22;6348029;28;20051;-96
2022/12/21 09:29:58;;;;;;;27.08;11.25;;;;;;;6.49;100.00;100143.25;6340543;28;20036;-96
2022/12/21 09:33:10;;;;;;;43.17;14.48;;;;;;;6.60;100.00;100127.06;6361981;28;20043;-96
2022/12/21 09:36:23;;;;;;;31.60;11.98;;;;;;;6.77;100.00;100115.63;6342240;28;20590;-96
2022/12/21 09:39:29;;;;;;;23.23;10.77;;;;;;;6.94;100.00;100117.03;6345216;27;20047;-96
2022/12/21 09:43:09;;;;;;;26.85;12.07;;;;;;;7.02;100.00;100115.53;6343363;28;20046;-96
2022/12/21 09:46:14;;;;;;;;;;;;;;;7.05;100.00;100114.50;6253075;22;20510;-89
2022/12/21 09:49:25;;;;;;;23.92;10.80;;;;;;;7.03;100.00;100126.66;6219670;28;19928;-89
2022/12/21 09:52:33;;;;;;;24.83;11.35;;;;;;;7.01;100.00;100119.06;6217010;28;20050;-89
2022/12/21 09:55:43;;;;;;;20.00;10.32;;;;;;;7.01;100.00;100131.09;6216876;28;20042;-90
2022/12/21 09:58:48;;;;;;;28.25;11.00;;;;;;;6.94;100.00;100127.31;6224205;28;20050;-90
2022/12/21 10:02:24;;;;;;;20.52;10.07;;;;;;;6.88;100.00;100128.53;6229182;28;20038;-90
2022/12/21 10:06:05;;;;;;;18.92;10.80;;;;;;;6.81;100.00;100111.91;6207859;28;20545;-90
2022/12/21 10:09:39;;;;;;;19.50;10.43;;;;;;;6.75;100.00;100122.63;6220802;28;20034;-90
2022/12/21 10:12:50;;;;;;;20.88;10.00;;;;;;;6.73;100.00;100116.75;6223086;28;20056;-90
2022/12/21 10:16:18;;;;;;;21.27;9.68;;;;;;;6.74;100.00;100114.09;6215272;28;20503;-90
2022/12/21 10:19:32;;;;;;;33.40;11.23;;;;;;;6.79;100.00;100117.16;6215193;28;20076;-89
2022/12/21 10:22:46;;;;;;;21.13;9.77;;;;;;;6.82;100.00;100116.13;6209486;28;20069;-89
2022/12/21 10:25:54;;;;;;;30.58;11.57;;;;;;;6.88;100.00;100113.09;6209444;28;20050;-89
2022/12/21 10:29:15;;;;;;;25.42;11.05;;;;;;;6.94;100.00;100106.72;6209634;28;20049;-90
2022/12/21 10:32:17;;;;;;;61.25;14.02;;;;;;;6.95;100.00;100105.78;6210557;28;20042;-89
2022/12/21 10:35:29;;;;;;;30.67;11.93;;;;;;;6.93;100.00;100103.31;6220014;28;20041;-90
2022/12/21 10:38:36;;;;;;;21.85;11.27;;;;;;;6.95;100.00;100101.47;6196170;28;20171;-90
2022/12/21 10:41:44;;;;;;;48.03;13.23;;;;;;;7.06;100.00;100098.16;6210453;28;20050;-88
2022/12/21 10:44:48;;;;;;;25.92;12.30;;;;;;;7.20;100.00;100086.84;6219409;28;20084;-89
2022/12/21 10:47:50;;;;;;;26.30;12.27;;;;;;;7.34;100.00;100081.53;6219263;28;20486;-88
2022/12/21 10:50:54;;;;;;;26.38;10.80;;;;;;;7.41;100.00;100075.00;6211954;28;20468;-88
2022/12/21 10:54:03;;;;;;;24.30;11.75;;;;;;;7.43;100.00;100072.28;6210316;28;20042;-89
2022/12/21 10:57:06;;;;;;;20.90;11.27;;;;;;;7.43;100.00;100074.88;6222614;28;20507;-89
2022/12/21 11:00:26;;;;;;;28.63;12.43;;;;;;;7.41;100.00;100081.91;6210579;28;20263;-89
2022/12/21 11:03:28;;;;;;;20.63;11.10;;;;;;;7.36;100.00;100076.28;6206856;28;20169;-89
2022/12/21 11:06:30;;;;;;;65.18;15.43;;;;;;;7.28;100.00;100076.84;6213338;28;20049;-91
2022/12/21 11:09:41;;;;;;;22.45;11.23;;;;;;;7.19;100.00;100073.16;6195379;28;20419;-90
2022/12/21 11:12:50;;;;;;;33.03;11.57;;;;;;;7.11;100.00;100076.28;6212517;28;20488;-89
2022/12/21 11:16:10;;;;;;;;;;;;;;;7.11;100.00;100073.72;6212691;28;20034;-89
2022/12/21 11:19:14;;;;;;;18.20;9.23;;;;;;;7.14;100.00;100069.28;6214003;28;20269;-88
2022/12/21 11:22:24;;;;;;;17.00;9.15;;;;;;;7.20;100.00;100054.19;6208621;28;20554;-89
2022/12/21 11:25:46;;;;;;;15.90;8.45;;;;;;;7.32;100.00;100050.72;6209273;28;20451;-90
2022/12/21 11:28:49;;;;;;;17.38;8.52;;;;;;;7.38;100.00;100052.06;6217414;28;20033;-90
2022/12/21 11:31:53;;;;;;;19.27;9.05;;;;;;;7.40;100.00;100057.88;6201394;28;20034;-90
2022/12/21 11:35:06;;;;;;;13.85;7.43;;;;;;;7.48;100.00;100063.31;6211141;28;20045;-90
2022/12/21 11:38:18;;;;;;;15.57;7.18;;;;;;;7.58;100.00;100054.91;6221124;28;20038;-91
2022/12/21 11:41:28;;;;;;;12.38;7.72;;;;;;;7.62;100.00;100061.47;6219815;28;20436;-90
2022/12/21 11:44:31;;;;;;;14.10;7.07;;;;;;;7.61;100.00;100065.81;6205112;28;20041;-91
2022/12/21 11:47:39;;;;;;;19.98;8.95;;;;;;;7.64;100.00;100062.19;6208388;28;20640;-91
2022/12/21 11:50:55;;;;;;;11.35;7.72;;;;;;;7.68;100.00;100056.69;6205225;28;20515;-91
2022/12/21 11:54:34;;;;;;;12.23;7.63;;;;;;;7.73;100.00;100054.59;6211329;28;20044;-91
2022/12/21 11:58:01;;;;;;;12.27;8.52;;;;;;;7.75;100.00;100051.88;6211172;28;20435;-92
2022/12/21 12:01:15;;;;;;;11.18;7.63;;;;;;;7.76;100.00;100050.97;6199208;28;20037;-92
2022/12/21 12:04:55;;;;;;;11.27;7.57;;;;;;;7.76;100.00;100058.69;6220241;28;20061;-92
2022/12/21 12:08:16;;;;;;;10.02;7.18;;;;;;;7.70;100.00;100051.41;6219608;28;20140;-92
2022/12/21 12:11:44;;;;;;;8.82;6.30;;;;;;;7.68;100.00;100048.16;6211979;28;20095;-92
2022/12/21 12:14:51;;;;;;;9.32;6.32;;;;;;;7.70;100.00;100046.25;6225904;28;20049;-92
2022/12/21 12:18:39;;;;;;;8.10;6.28;;;;;;;7.72;100.00;100052.13;6218150;28;20049;-91
2022/12/21 12:21:53;;;;;;;7.95;5.90;;;;;;;7.63;100.00;100048.50;6216868;28;20398;-91
2022/12/21 12:25:14;;;;;;;10.52;6.93;;;;;;;7.61;100.00;100050.34;6215401;28;20041;-91
2022/12/21 12:28:31;;;;;;;8.90;5.85;;;;;;;7.57;100.00;100041.19;6219362;28;20594;-92
2022/12/21 12:31:58;;;;;;;9.32;6.75;;;;;;;7.59;100.00;100047.06;6214006;28;20078;-91
2022/12/21 12:35:00;;;;;;;9.30;6.38;;;;;;;7.61;100.00;100034.91;6210803;28;20041;-91
2022/12/21 12:38:04;;;;;;;9.32;6.47;;;;;;;7.67;100.00;100044.72;6210626;28;20037;-90
2022/12/21 12:41:12;;;;;;;9.13;5.20;;;;;;;7.73;100.00;100043.47;6207150;28;20041;-90
2022/12/21 12:44:45;;;;;;;8.05;5.75;;;;;;;7.81;100.00;100038.56;6216619;28;20034;-90
2022/12/21 12:48:13;;;;;;;8.80;6.20;;;;;;;7.81;100.00;100051.44;6204599;28;20064;-91
2022/12/21 12:51:31;;;;;;;8.25;6.22;;;;;;;7.76;100.00;100056.94;6211935;28;20093;-90
2022/12/21 12:55:03;;;;;;;11.75;6.10;;;;;;;7.77;100.00;100050.03;6217977;28;20128;-89
2022/12/21 12:58:27;;;;;;;8.88;6.35;;;;;;;7.83;100.00;100048.75;6218185;28;20139;-90
2022/12/21 13:01:41;;;;;;;7.50;5.80;;;;;;;7.83;100.00;100065.03;6211393;28;20053;-90
2022/12/21 13:05:02;;;;;;;9.82;6.25;;;;;;;7.82;100.00;100057.41;6214420;28;20087;-90
2022/12/21 13:08:18;;;;;;;10.65;5.97;;;;;;;7.81;100.00;100050.63;6217534;28;20045;-91
2022/12/21 13:11:53;;;;;;;10.25;6.57;;;;;;;7.73;100.00;100052.03;6210590;28;20391;-91
2022/12/21 13:15:22;;;;;;;10.15;6.55;;;;;;;7.66;100.00;100055.16;6211966;28;20061;-91
2022/12/21 13:18:48;;;;;;;8.55;6.53;;;;;;;7.60;100.00;100059.00;6207593;28;20189;-91
2022/12/21 13:21:56;;;;;;;10.55;6.55;;;;;;;7.60;100.00;100050.47;6215000;28;20123;-91
2022/12/21 13:25:20;;;;;;;9.73;6.38;;;;;;;7.60;100.00;100058.19;6212107;28;20042;-91
2022/12/21 13:28:58;;;;;;;9.38;6.38;;;;;;;7.55;100.00;100049.06;6208295;28;20083;-91
2022/12/21 13:32:10;;;;;;;9.18;5.85;;;;;;;7.57;100.00;100048.13;6212744;28;20038;-91
2022/12/21 13:35:18;;;;;;;11.38;6.35;;;;;;;7.75;100.00;100036.44;6213987;28;20491;-92
2022/12/21 13:38:42;;;;;;;8.85;6.50;;;;;;;7.89;100.00;100032.81;6214760;28;20046;-91
2022/12/21 13:42:01;;;;;;;11.15;6.72;;;;;;;7.77;100.00;100042.28;6215575;28;20042;-92
2022/12/21 13:45:36;;;;;;;8.23;5.90;;;;;;;7.65;100.00;100050.94;6201321;28;20038;-91
2022/12/21 13:48:54;;;;;;;7.40;5.32;;;;;;;7.54;100.00;100054.31;6211396;28;20047;-91
2022/12/21 13:52:28;;;;;;;7.45;5.18;;;;;;;7.49;100.00;100058.97;6200714;28;20502;-92
2022/12/21 13:55:46;;;;;;;9.25;4.65;;;;;;;7.44;100.00;100063.66;6213912;28;20042;-91
2022/12/21 13:58:58;;;;;;;5.88;3.90;;;;;;;7.44;100.00;100059.31;6210513;28;20056;-92
2022/12/21 14:02:03;;;;;;;6.00;3.83;;;;;;;7.59;100.00;100070.25;6210126;28;20404;-91
2022/12/21 14:05:14;;;;;;;5.60;4.25;;;;;;;7.57;100.00;100072.13;6211079;28;20138;-91
2022/12/21 14:08:38;;;;;;;5.80;4.00;;;;;;;7.59;100.00;100075.41;6195037;28;20379;-91
2022/12/21 14:12:12;;;;;;;5.47;3.90;;;;;;;7.64;100.00;100081.03;6206819;28;20053;-91
2022/12/21 14:15:55;;;;;;;6.78;4.70;;;;;;;7.60;100.00;100065.91;6216201;28;20046;-91
2022/12/21 14:19:01;;;;;;;6.18;4.00;;;;;;;7.68;100.00;100063.59;6207222;28;20042;-91
2022/12/21 14:22:13;;;;;;;7.38;4.30;;;;;;;7.66;100.00;100065.47;6208436;28;20518;-90
2022/12/21 14:25:42;;;;;;;6.72;4.63;;;;;;;7.63;100.00;100063.94;6220566;28;20049;-90
2022/12/21 14:28:46;;;;;;;9.40;4.60;;;;;;;7.34;100.00;100066.88;6207844;28;20046;-90
2022/12/21 14:31:55;;;;;;;7.13;5.03;;;;;;;7.28;100.00;100058.81;6209441;28;20482;-90
2022/12/21 14:35:03;;;;;;;5.72;3.92;;;;;;;7.20;100.00;100066.25;6210624;28;20131;-90
2022/12/21 14:38:27;;;;;;;6.32;4.28;;;;;;;7.21;100.00;100060.19;6202777;28;20551;-90
2022/12/21 14:41:42;;;;;;;5.32;3.58;;;;;;;7.12;100.00;100057.31;6209363;28;20073;-90
2022/12/21 14:45:13;;;;;;;7.50;3.40;;;;;;;7.06;100.00;100055.22;6207333;28;20125;-90
2022/12/21 14:48:39;;;;;;;7.00;3.15;;;;;;;7.07;100.00;100054.25;6210037;28;20050;-89
2022/12/21 14:51:56;;;;;;;5.78;3.70;;;;;;;7.14;100.00;100062.38;6204061;28;20034;-89
2022/12/21 14:55:00;;;;;;;6.30;4.30;;;;;;;7.12;100.00;100054.75;6204705;28;20045;-89
2022/12/21 14:58:20;;;;;;;9.63;4.25;;;;;;;7.03;100.00;100046.88;6208486;28;20065;-90
2022/12/21 15:01:59;;;;;;;8.20;4.05;;;;;;;6.87;100.00;100049.72;6220325;28;20096;-90
2022/12/21 15:05:04;;;;;;;6.65;4.13;;;;;;;6.69;100.00;100046.72;6210411;28;20046;-90